createdAt,value
2023-02-18T00:00:00.000Z,96.22
2023-02-18T00:05:00.000Z,96.49
2023-02-18T00:10:00.000Z,96.88
2023-02-18T00:15:02.000Z,97.41
2023-02-18T00:20:00.000Z,97.59
2023-02-18T00:25:00.000Z,97.47
2023-02-18T00:30:01.000Z,97.51
2023-02-18T00:35:00.000Z,97.60
2023-02-18T00:40:00.000Z,97.43
2023-02-18T00:45:01.000Z,97.61
2023-02-18T01:10:01.000Z,98.68
2023-02-18T01:15:00.000Z,98.73
2023-02-18T01:20:00.000Z,98.91
2023-02-18T01:25:00.000Z,99.12
2023-02-18T01:30:00.000Z,99.38
2023-02-18T01:35:01.000Z,99.58
2023-02-18T01:40:01.000Z,99.45
2023-02-18T01:45:01.000Z,99.35
2023-02-18T01:50:01.000Z,99.22
2023-02-18T01:55:00.000Z,99.24
2023-02-18T02:00:00.000Z,99.36
2023-02-18T02:05:01.000Z,99.63
2023-02-18T02:10:01.000Z,99.74
2023-02-18T02:15:01.000Z,99.80
2023-02-18T02:20:16.000Z,100.00
2023-02-18T02:25:02.000Z,100.12
2023-02-18T02:30:16.000Z,100.18
2023-02-18T02:35:17.000Z,100.18
2023-02-18T02:40:16.000Z,100.19
2023-02-18T02:45:01.000Z,100.45
2023-02-18T02:49:46.000Z,100.56
2023-02-18T02:55:01.000Z,100.34
2023-02-18T03:00:06.000Z,100.10
2023-02-18T03:05:03.000Z,100.03
2023-02-18T03:10:01.000Z,99.88
2023-02-18T03:15:01.000Z,100.03
2023-02-18T03:20:16.000Z,100.26
2023-02-18T03:25:00.000Z,100.29
2023-02-18T03:30:01.000Z,100.29
2023-02-18T03:35:01.000Z,100.49
2023-02-18T03:40:01.000Z,100.47
2023-02-18T03:45:01.000Z,100.64
2023-02-18T03:50:00.000Z,100.75
2023-02-18T03:55:02.000Z,100.87
2023-02-18T04:00:01.000Z,100.93
2023-02-18T04:05:01.000Z,100.90
2023-02-18T04:10:01.000Z,100.93
2023-02-18T04:15:01.000Z,100.99
2023-02-18T04:20:01.000Z,101.03
2023-02-18T04:25:01.000Z,101.03
2023-02-18T04:30:01.000Z,100.83
2023-02-18T04:35:01.000Z,100.83
2023-02-18T04:40:01.000Z,100.83
2023-02-18T04:45:01.000Z,100.86
2023-02-18T04:50:02.000Z,100.92
2023-02-18T04:55:00.000Z,100.95
2023-02-18T05:00:03.000Z,100.86
2023-02-18T05:05:01.000Z,100.86
2023-02-18T05:10:01.000Z,101.29
2023-02-18T05:15:01.000Z,101.41
2023-02-18T05:20:01.000Z,101.35
2023-02-18T05:25:01.000Z,101.21
2023-02-18T05:30:01.000Z,101.30
2023-02-18T05:35:01.000Z,101.38
2023-02-18T05:40:01.000Z,101.56
2023-02-18T05:45:05.000Z,101.67
2023-02-18T05:50:02.000Z,101.90
2023-02-18T05:55:01.000Z,102.04
2023-02-18T06:00:01.000Z,102.15
2023-02-18T06:05:01.000Z,102.24
2023-02-18T06:10:01.000Z,102.24
2023-02-18T06:15:01.000Z,102.24
2023-02-18T06:20:01.000Z,102.27
2023-02-18T06:25:01.000Z,102.30
2023-02-18T06:30:02.000Z,102.21
2023-02-18T06:35:01.000Z,102.23
2023-02-18T06:40:01.000Z,102.15
2023-02-18T06:45:01.000Z,102.28
2023-02-18T06:50:01.000Z,102.38
2023-02-18T06:55:01.000Z,102.43
2023-02-18T07:00:01.000Z,102.37
2023-02-18T07:05:01.000Z,102.39
2023-02-18T07:10:01.000Z,102.25
2023-02-18T07:15:01.000Z,102.19
2023-02-18T07:20:01.000Z,102.10
2023-02-18T07:25:01.000Z,102.07
2023-02-18T07:30:01.000Z,101.95
2023-02-18T07:35:01.000Z,101.83
2023-02-18T07:40:01.000Z,101.71
2023-02-18T07:45:01.000Z,101.73
2023-02-18T07:50:01.000Z,101.73
2023-02-18T07:55:01.000Z,101.80
2023-02-18T08:00:01.000Z,101.28
2023-02-18T08:05:01.000Z,100.29
2023-02-18T08:10:02.000Z,99.67
2023-02-18T08:15:01.000Z,99.58
2023-02-18T08:20:01.000Z,99.42
2023-02-18T08:25:01.000Z,98.93
2023-02-18T08:30:01.000Z,98.19
2023-02-18T08:35:01.000Z,97.74
2023-02-18T08:40:01.000Z,97.47
2023-02-18T08:45:01.000Z,97.02
2023-02-18T08:50:01.000Z,94.62
2023-02-18T08:55:01.000Z,92.92
2023-02-18T09:00:01.000Z,92.02
2023-02-18T09:05:01.000Z,90.84
2023-02-18T09:10:01.000Z,89.24
2023-02-18T09:15:01.000Z,87.11
2023-02-18T09:20:01.000Z,85.77
2023-02-18T09:25:01.000Z,85.15
2023-02-18T09:30:01.000Z,84.84
2023-02-18T09:35:01.000Z,85.15
2023-02-18T09:40:01.000Z,84.93
2023-02-18T09:45:01.000Z,83.70
2023-02-18T09:50:01.000Z,83.17
2023-02-18T09:55:01.000Z,81.67
2023-02-18T10:00:01.000Z,81.02
2023-02-18T10:05:01.000Z,80.35
2023-02-18T10:10:01.000Z,80.12
2023-02-18T10:15:01.000Z,78.80
2023-02-18T10:20:01.000Z,79.33
2023-02-18T10:25:01.000Z,77.79
2023-02-18T10:30:01.000Z,79.32
2023-02-18T10:35:02.000Z,78.20
2023-02-18T10:40:01.000Z,78.30
2023-02-18T10:45:01.000Z,77.92
2023-02-18T10:50:01.000Z,77.98
2023-02-18T10:55:01.000Z,77.06
2023-02-18T11:00:01.000Z,77.01
2023-02-18T11:05:01.000Z,76.77
2023-02-18T11:10:01.000Z,77.23
2023-02-18T11:15:01.000Z,77.89
2023-02-18T11:20:01.000Z,76.70
2023-02-18T11:25:01.000Z,77.59
2023-02-18T11:30:01.000Z,76.77
2023-02-18T11:35:01.000Z,75.41
2023-02-18T11:40:01.000Z,75.86
2023-02-18T11:45:01.000Z,76.18
2023-02-18T11:50:01.000Z,76.02
2023-02-18T11:55:01.000Z,75.63
2023-02-18T12:00:01.000Z,76.16
2023-02-18T12:05:01.000Z,75.85
2023-02-18T12:10:01.000Z,76.21
2023-02-18T12:15:01.000Z,75.29
2023-02-18T12:20:01.000Z,76.30
2023-02-18T12:25:01.000Z,75.47
2023-02-18T12:30:01.000Z,74.47
2023-02-18T12:35:01.000Z,74.92
2023-02-18T12:40:01.000Z,74.07
2023-02-18T12:45:01.000Z,74.10
2023-02-18T12:50:01.000Z,74.12
2023-02-18T12:55:01.000Z,74.22
2023-02-18T13:00:01.000Z,74.16
2023-02-18T13:05:01.000Z,73.87
2023-02-18T13:10:01.000Z,74.59
2023-02-18T13:15:01.000Z,73.67
2023-02-18T13:20:01.000Z,73.51
2023-02-18T13:25:01.000Z,73.72
2023-02-18T13:30:01.000Z,73.16
2023-02-18T13:35:01.000Z,72.20
2023-02-18T13:40:01.000Z,72.65
2023-02-18T13:45:01.000Z,72.20
2023-02-18T13:50:01.000Z,72.44
2023-02-18T13:55:01.000Z,72.58
2023-02-18T14:00:01.000Z,72.46
2023-02-18T14:05:01.000Z,72.63
2023-02-18T14:10:01.000Z,72.65
2023-02-18T14:15:01.000Z,73.35
2023-02-18T14:20:01.000Z,73.26
2023-02-18T14:25:01.000Z,73.48
2023-02-18T14:30:01.000Z,73.40
2023-02-18T14:35:01.000Z,73.63
2023-02-18T14:40:01.000Z,74.06
2023-02-18T14:45:01.000Z,74.19
2023-02-18T14:50:01.000Z,74.14
2023-02-18T14:55:01.000Z,74.06
2023-02-18T15:00:01.000Z,74.38
2023-02-18T15:05:01.000Z,74.64
2023-02-18T15:10:01.000Z,74.76
2023-02-18T15:15:01.000Z,75.05
2023-02-18T15:20:01.000Z,75.24
2023-02-18T15:25:01.000Z,75.79
2023-02-18T15:30:01.000Z,76.50
2023-02-18T15:35:01.000Z,76.45
2023-02-18T15:40:01.000Z,76.79
2023-02-18T15:45:01.000Z,77.02
2023-02-18T15:50:01.000Z,76.79
2023-02-18T15:55:01.000Z,77.08
2023-02-18T16:00:01.000Z,77.31
2023-02-18T16:05:01.000Z,77.56
2023-02-18T16:10:01.000Z,78.24
2023-02-18T16:15:01.000Z,78.98
2023-02-18T16:20:01.000Z,79.17
2023-02-18T16:25:01.000Z,79.46
2023-02-18T16:30:01.000Z,80.07
2023-02-18T16:35:01.000Z,80.10
2023-02-18T16:40:02.000Z,80.17
2023-02-18T16:45:01.000Z,80.83
2023-02-18T16:50:01.000Z,82.02
2023-02-18T16:55:02.000Z,82.20
2023-02-18T17:00:02.000Z,82.41
2023-02-18T17:05:01.000Z,82.71
2023-02-18T17:10:02.000Z,83.52
2023-02-18T17:15:02.000Z,83.89
2023-02-18T17:20:01.000Z,84.83
2023-02-18T17:25:01.000Z,84.87
2023-02-18T17:30:01.000Z,85.23
2023-02-18T17:35:01.000Z,85.91
2023-02-18T17:40:02.000Z,86.12
2023-02-18T17:45:01.000Z,86.93
2023-02-18T17:50:01.000Z,87.56
2023-02-18T17:55:01.000Z,87.61
2023-02-18T18:00:01.000Z,88.63
2023-02-18T18:05:01.000Z,90.24
2023-02-18T18:10:01.000Z,90.56
2023-02-18T18:15:01.000Z,91.27
2023-02-18T18:20:01.000Z,91.48
2023-02-18T18:25:01.000Z,91.92
2023-02-18T18:30:02.000Z,91.79
2023-02-18T18:35:01.000Z,92.01
2023-02-18T18:40:01.000Z,92.29
2023-02-18T18:45:01.000Z,92.48
2023-02-18T18:50:01.000Z,92.53
2023-02-18T18:55:01.000Z,93.40
2023-02-18T19:00:03.000Z,93.87
2023-02-18T19:05:01.000Z,94.03
2023-02-18T19:10:01.000Z,94.38
2023-02-18T19:15:01.000Z,94.29
2023-02-18T19:20:01.000Z,94.17
2023-02-18T19:25:01.000Z,94.20
2023-02-18T19:30:01.000Z,94.32
2023-02-18T19:35:01.000Z,94.33
2023-02-18T19:40:01.000Z,94.74
2023-02-18T19:45:01.000Z,94.81
2023-02-18T19:50:01.000Z,95.08
2023-02-18T19:55:01.000Z,95.21
2023-02-18T20:00:01.000Z,95.34
2023-02-18T20:05:01.000Z,95.31
2023-02-18T20:10:01.000Z,95.26
2023-02-18T20:15:02.000Z,95.55
2023-02-18T20:20:01.000Z,96.09
2023-02-18T20:25:01.000Z,96.29
2023-02-18T20:30:01.000Z,96.58
2023-02-18T20:35:01.000Z,96.75
2023-02-18T20:40:01.000Z,96.89
2023-02-18T20:45:01.000Z,96.87
2023-02-18T20:50:01.000Z,97.16
2023-02-18T20:55:01.000Z,97.32
2023-02-18T21:00:02.000Z,97.32
2023-02-18T21:05:01.000Z,97.11
2023-02-18T21:10:01.000Z,97.36
2023-02-18T21:15:01.000Z,97.38
2023-02-18T21:20:01.000Z,97.68
2023-02-18T21:25:02.000Z,97.77
2023-02-18T21:30:01.000Z,97.97
2023-02-18T21:35:01.000Z,97.94
2023-02-18T21:40:01.000Z,97.75
2023-02-18T21:45:02.000Z,98.33
2023-02-18T21:50:01.000Z,98.36
2023-02-18T21:55:01.000Z,98.23
2023-02-18T22:00:02.000Z,98.37
2023-02-18T22:05:01.000Z,98.26
2023-02-18T22:10:02.000Z,98.61
2023-02-18T22:15:01.000Z,98.64
2023-02-18T22:20:02.000Z,98.61
2023-02-18T22:25:01.000Z,98.47
2023-02-18T22:30:02.000Z,98.55
2023-02-18T22:35:01.000Z,98.70
2023-02-18T22:40:02.000Z,98.70
2023-02-18T22:45:01.000Z,98.71
2023-02-18T22:50:01.000Z,98.65
2023-02-18T22:55:02.000Z,98.54
2023-02-18T23:00:03.000Z,98.37
2023-02-18T23:05:02.000Z,98.57
2023-02-18T23:10:02.000Z,98.67
2023-02-18T23:15:02.000Z,98.90
2023-02-18T23:20:02.000Z,99.02
2023-02-18T23:25:02.000Z,99.14
2023-02-18T23:30:02.000Z,99.31
2023-02-18T23:35:02.000Z,99.51
2023-02-18T23:40:01.000Z,99.60
2023-02-18T23:45:02.000Z,98.67
2023-02-18T23:50:02.000Z,99.48
2023-02-18T23:55:02.000Z,100.06
